Time;durP1;ratioP1;P1;durP2;ratioP2;P2;SDS_P1;SDS_P2;PMS_P1;PMS_P2;Temp;Humidity;BMP_temperature;BMP_pressure;BME280_temperature;BME280_humidity;BME280_pressure;Samples;Min_cycle;Max_cycle;Signal;HPM_P1;HPM_P2
2022/10/05 00:00:48;;;;;;;14.75;7.03;;;15.20;99.90;;;;;;6249373;22;20343;-83
2022/10/05 00:03:14;;;;;;;13.27;6.72;;;15.30;99.90;;;;;;6248112;22;20047;-83
2022/10/05 00:05:40;;;;;;;13.27;6.63;;;16.20;99.90;;;;;;6249294;22;20479;-83
2022/10/05 00:08:16;;;;;;;12.65;6.55;;;15.20;99.90;;;;;;6276015;22;20436;-83
2022/10/05 00:15:39;;;;;;;14.38;6.57;;;15.20;99.90;;;;;;6245909;23;20035;-83
2022/10/05 00:18:19;;;;;;;13.07;6.55;;;15.20;99.90;;;;;;6244927;23;20097;-84
2022/10/05 00:20:46;;;;;;;12.45;6.18;;;15.20;99.90;;;;;;6246090;23;20012;-83
2022/10/05 00:23:28;;;;;;;12.18;6.53;;;15.80;99.90;;;;;;6217726;23;20012;-83
2022/10/05 00:25:54;;;;;;;13.35;6.00;;;15.70;99.90;;;;;;6218523;23;20388;-83
2022/10/05 00:28:26;;;;;;;11.82;5.90;;;15.20;99.90;;;;;;6245737;23;20016;-83
2022/10/05 00:30:56;;;;;;;11.75;5.82;;;16.10;99.90;;;;;;6218344;23;20012;-84
2022/10/05 00:33:22;;;;;;;13.45;5.90;;;15.70;99.90;;;;;;6218900;23;20075;-83
2022/10/05 00:35:48;;;;;;;12.75;6.20;;;16.30;99.90;;;;;;6219173;23;20012;-83
2022/10/05 00:38:13;;;;;;;11.68;5.70;;;16.30;99.90;;;;;;6244340;23;20348;-83
2022/10/05 00:41:14;;;;;;;11.93;5.70;;;15.10;99.90;;;;;;6218827;23;20012;-83
2022/10/05 00:43:52;;;;;;;12.35;5.90;;;15.10;99.90;;;;;;6246246;23;20165;-83
2022/10/05 00:46:40;;;;;;;11.32;5.80;;;15.20;99.90;;;;;;6217578;23;20023;-83
2022/10/05 00:49:33;;;;;;;14.00;6.47;;;15.10;99.90;;;;;;6218556;23;20016;-83
2022/10/05 00:52:30;;;;;;;12.52;5.95;;;15.10;99.90;;;;;;6244875;23;20027;-83
2022/10/05 00:55:14;;;;;;;11.60;6.07;;;15.10;99.90;;;;;;6218287;23;20027;-83
2022/10/05 00:58:00;;;;;;;13.93;5.82;;;15.10;99.90;;;;;;6218740;23;20013;-83
2022/10/05 01:00:26;;;;;;;13.00;6.68;;;15.20;99.90;;;;;;6217596;23;20269;-83
2022/10/05 01:03:05;;;;;;;13.45;6.25;;;15.20;99.90;;;;;;6218672;23;20023;-83
2022/10/05 01:05:38;;;;;;;14.30;6.55;;;15.20;99.90;;;;;;6217260;23;20020;-83
2022/10/05 01:08:21;;;;;;;13.98;6.63;;;15.10;99.90;;;;;;6218681;23;20012;-83
2022/10/05 01:10:59;;;;;;;14.07;6.47;;;15.10;99.90;;;;;;6217996;23;20016;-83
2022/10/05 01:13:58;;;;;;;12.15;6.68;;;15.10;99.90;;;;;;6217274;23;20014;-83
2022/10/05 01:16:37;;;;;;;11.20;6.30;;;15.10;99.90;;;;;;6218159;23;20019;-83
2022/10/05 01:19:40;;;;;;;12.57;6.85;;;15.00;99.90;;;;;;6218126;23;20344;-83
2022/10/05 01:22:40;;;;;;;13.52;7.00;;;15.00;99.90;;;;;;6217982;23;20048;-83
2022/10/05 01:25:06;;;;;;;12.90;7.07;;;15.00;99.90;;;;;;6211785;23;20020;-83
2022/10/05 01:28:02;;;;;;;15.32;7.55;;;15.00;99.90;;;;;;6217555;23;20098;-83
2022/10/05 01:30:36;;;;;;;14.43;7.22;;;15.00;99.90;;;;;;6201731;23;20016;-83
2022/10/05 01:33:17;;;;;;;15.35;7.72;;;14.90;99.90;;;;;;6218583;23;20510;-83
2022/10/05 01:36:01;;;;;;;13.77;7.50;;;14.80;99.90;;;;;;6218641;23;20027;-84
2022/10/05 01:38:32;;;;;;;13.80;6.97;;;14.90;99.90;;;;;;6246232;23;20048;-83
2022/10/05 01:41:18;;;;;;;13.50;7.10;;;14.80;99.90;;;;;;6246490;23;20048;-83
2022/10/05 01:43:55;;;;;;;16.63;7.35;;;14.80;99.90;;;;;;6220793;23;20070;-83
2022/10/05 01:46:30;;;;;;;14.90;7.80;;;14.80;99.90;;;;;;6247162;23;20103;-83
2022/10/05 01:49:33;;;;;;;15.05;7.63;;;14.80;99.90;;;;;;6247039;23;20504;-83
2022/10/05 01:52:24;;;;;;;14.77;7.22;;;14.80;99.90;;;;;;6247431;23;20062;-83
2022/10/05 01:54:49;;;;;;;16.67;7.80;;;14.70;99.90;;;;;;6219583;23;20138;-83
2022/10/05 01:57:56;;;;;;;14.32;7.90;;;14.70;99.90;;;;;;6246987;23;20047;-83
2022/10/05 02:00:22;;;;;;;14.93;7.50;;;14.70;99.90;;;;;;6220041;23;20095;-83
2022/10/05 02:03:10;;;;;;;14.85;8.38;;;14.70;99.90;;;;;;6219397;23;20008;-83
2022/10/05 02:05:56;;;;;;;15.80;7.72;;;15.60;99.90;;;;;;6224973;23;20016;-83
2022/10/05 02:08:46;;;;;;;14.13;8.18;;;14.90;99.90;;;;;;6218688;23;20008;-83
2022/10/05 02:11:16;;;;;;;13.95;7.80;;;15.00;99.90;;;;;;6246513;23;20475;-83
2022/10/05 02:13:50;;;;;;;18.88;8.23;;;14.70;99.90;;;;;;6219988;23;20070;-83
2022/10/05 02:16:26;;;;;;;15.88;7.93;;;15.90;99.90;;;;;;6218880;23;20012;-83
2022/10/05 02:18:58;;;;;;;15.02;7.38;;;15.30;99.90;;;;;;6220192;23;20074;-83
2022/10/05 02:21:25;;;;;;;14.63;7.13;;;14.70;99.90;;;;;;6219838;23;20091;-83
2022/10/05 02:23:58;;;;;;;14.20;7.07;;;14.70;99.90;;;;;;6219287;23;20154;-83
2022/10/05 02:26:26;;;;;;;13.15;7.35;;;14.70;99.90;;;;;;6246829;23;20302;-83
2022/10/05 02:28:55;;;;;;;12.48;6.72;;;14.70;99.90;;;;;;6247036;23;20012;-83
2022/10/05 02:31:35;;;;;;;13.63;7.50;;;14.70;99.90;;;;;;6218524;23;20016;-83
2022/10/05 02:34:34;;;;;;;13.18;7.68;;;15.00;99.90;;;;;;6220185;23;20096;-83
2022/10/05 02:37:06;;;;;;;13.90;7.60;;;14.60;99.90;;;;;;6246194;23;20046;-83
2022/10/05 02:39:54;;;;;;;13.77;7.40;;;14.50;99.90;;;;;;6219773;23;20487;-83
2022/10/05 02:42:42;;;;;;;13.90;7.30;;;14.50;99.90;;;;;;6246386;23;20432;-83
2022/10/05 02:45:26;;;;;;;12.73;7.22;;;14.50;99.90;;;;;;6218308;23;20460;-83
2022/10/05 02:47:57;;;;;;;13.65;7.50;;;14.40;99.90;;;;;;6220044;23;20318;-83
2022/10/05 02:50:42;;;;;;;13.73;6.68;;;14.40;99.90;;;;;;6219502;23;20043;-83
2022/10/05 02:53:29;;;;;;;13.05;7.05;;;14.40;99.90;;;;;;6246328;23;20046;-83
2022/10/05 02:56:11;;;;;;;16.10;7.43;;;14.30;99.90;;;;;;6219749;23;20019;-83
2022/10/05 02:58:49;;;;;;;16.33;7.50;;;14.30;99.90;;;;;;6218891;23;20440;-83
2022/10/05 03:01:30;;;;;;;14.57;7.28;;;14.30;99.90;;;;;;6219873;23;20012;-83
2022/10/05 03:04:33;;;;;;;14.98;7.70;;;14.30;99.90;;;;;;6246921;23;20020;-83
2022/10/05 03:07:06;;;;;;;13.38;7.40;;;14.30;99.90;;;;;;6219185;23;20023;-83
2022/10/05 03:09:40;;;;;;;12.30;6.80;;;14.30;99.90;;;;;;6246718;23;20016;-83
2022/10/05 03:12:19;;;;;;;15.32;7.57;;;14.20;99.90;;;;;;6212870;23;20012;-83
2022/10/05 03:15:09;;;;;;;14.13;7.25;;;14.20;99.90;;;;;;6214421;23;20396;-83
2022/10/05 03:17:56;;;;;;;16.30;7.60;;;14.20;99.90;;;;;;6214732;23;20013;-83
2022/10/05 03:21:06;;;;;;;14.02;7.30;;;14.10;99.90;;;;;;6213155;23;20044;-82
2022/10/05 03:23:31;;;;;;;16.52;7.95;;;14.10;99.90;;;;;;6216432;23;20074;-83
2022/10/05 03:26:17;;;;;;;14.98;7.78;;;14.00;99.90;;;;;;6213240;23;20021;-83
2022/10/05 03:29:02;;;;;;;14.68;7.63;;;14.00;99.90;;;;;;6214590;23;20044;-83
2022/10/05 03:31:40;;;;;;;15.38;7.63;;;14.00;99.90;;;;;;6214093;23;20008;-83
2022/10/05 03:34:52;;;;;;;13.90;6.97;;;14.00;99.90;;;;;;6213359;23;20017;-83
2022/10/05 03:37:41;;;;;;;15.38;7.63;;;13.90;99.90;;;;;;6214072;23;20451;-83
2022/10/05 03:40:14;;;;;;;14.07;7.45;;;13.90;99.90;;;;;;6213245;23;20027;-83
2022/10/05 03:42:49;;;;;;;12.90;7.47;;;13.90;99.90;;;;;;6214434;23;20021;-83
2022/10/05 03:45:46;;;;;;;14.02;7.30;;;13.80;99.90;;;;;;6213835;23;20071;-83
2022/10/05 03:48:16;;;;;;;14.98;8.00;;;13.90;99.90;;;;;;6172575;23;20017;-83
2022/10/05 03:50:53;;;;;;;14.98;8.18;;;14.20;99.90;;;;;;6213985;23;20023;-83
2022/10/05 03:53:23;;;;;;;13.38;8.20;;;13.90;99.90;;;;;;6215830;23;20019;-83
2022/10/05 03:56:03;;;;;;;14.20;7.82;;;14.50;99.90;;;;;;6215317;23;20028;-83
2022/10/05 03:58:47;;;;;;;15.52;8.27;;;14.90;99.90;;;;;;6213771;23;20009;-83
2022/10/05 04:01:22;;;;;;;15.20;8.25;;;14.00;99.90;;;;;;6215658;23;20415;-83
2022/10/05 04:03:58;;;;;;;14.13;8.23;;;15.00;99.90;;;;;;6215877;23;20013;-83
2022/10/05 04:06:37;;;;;;;15.88;8.00;;;14.00;99.90;;;;;;6214465;23;20013;-83
2022/10/05 04:09:09;;;;;;;14.68;7.82;;;14.00;99.90;;;;;;6214247;23;20013;-83
2022/10/05 04:11:48;;;;;;;14.75;8.63;;;14.00;99.90;;;;;;6213905;23;20023;-83
2022/10/05 04:14:37;;;;;;;16.48;8.10;;;14.00;99.90;;;;;;6213344;23;20020;-83
2022/10/05 04:17:16;;;;;;;14.70;8.75;;;14.20;99.90;;;;;;6213498;23;20406;-83
2022/10/05 04:19:55;;;;;;;17.63;8.82;;;13.90;99.90;;;;;;6213453;23;20057;-83
2022/10/05 04:22:30;;;;;;;15.95;8.35;;;13.90;99.90;;;;;;6212712;23;20107;-83
2022/10/05 04:25:27;;;;;;;16.77;9.05;;;13.90;99.90;;;;;;6213898;23;20016;-83
2022/10/05 04:28:15;;;;;;;17.05;8.70;;;13.90;99.90;;;;;;6213933;23;20063;-83
2022/10/05 04:30:45;;;;;;;16.40;8.52;;;13.90;99.90;;;;;;6199927;23;20375;-83
2022/10/05 04:33:14;;;;;;;15.77;9.40;;;14.20;99.90;;;;;;6213501;23;20024;-83
2022/10/05 04:35:55;;;;;;;16.20;9.45;;;13.90;99.90;;;;;;6215075;23;20078;-83
2022/10/05 04:38:34;;;;;;;15.13;9.00;;;13.90;99.90;;;;;;6212095;23;20021;-83
2022/10/05 04:41:08;;;;;;;14.82;9.32;;;13.90;99.90;;;;;;6215051;23;20460;-83
2022/10/05 04:44:04;;;;;;;16.88;10.07;;;13.90;99.90;;;;;;6212706;23;20337;-83
2022/10/05 04:46:56;;;;;;;16.83;9.60;;;13.90;99.90;;;;;;6214679;23;20430;-84
2022/10/05 04:50:00;;;;;;;17.65;9.85;;;13.80;99.90;;;;;;6192194;23;20017;-83
2022/10/05 04:52:54;;;;;;;18.23;10.30;;;13.80;99.90;;;;;;6214036;23;20017;-83
2022/10/05 04:55:48;;;;;;;17.50;9.82;;;13.80;99.90;;;;;;6215065;23;20150;-83
2022/10/05 04:58:46;;;;;;;18.25;10.57;;;13.70;99.90;;;;;;6200782;23;20508;-83
2022/10/05 05:01:25;;;;;;;18.27;10.43;;;13.70;99.90;;;;;;6213125;23;20425;-83
2022/10/05 05:04:25;;;;;;;17.42;9.30;;;13.60;99.90;;;;;;6213353;23;20024;-83
2022/10/05 05:07:18;;;;;;;17.80;9.77;;;13.60;99.90;;;;;;6213637;23;20024;-83
2022/10/05 05:10:19;;;;;;;20.10;9.80;;;13.60;99.90;;;;;;6213205;23;20100;-83
2022/10/05 05:13:11;;;;;;;21.00;10.32;;;13.60;99.90;;;;;;6241580;23;20020;-83
2022/10/05 05:16:06;;;;;;;19.15;9.55;;;13.90;99.90;;;;;;6245111;23;20023;-83
2022/10/05 05:18:47;;;;;;;18.60;10.02;;;13.60;99.90;;;;;;6217499;23;20016;-83
2022/10/05 05:21:31;;;;;;;20.40;10.20;;;13.50;99.90;;;;;;6217999;23;20016;-83
2022/10/05 05:24:00;;;;;;;21.08;10.18;;;14.80;99.90;;;;;;6218469;23;20012;-83
2022/10/05 05:26:33;;;;;;;18.00;10.10;;;13.50;99.90;;;;;;6217033;23;20470;-83
2022/10/05 05:29:20;;;;;;;19.52;10.23;;;13.50;99.90;;;;;;6218531;23;20016;-83
2022/10/05 05:31:54;;;;;;;18.40;9.75;;;13.50;99.90;;;;;;6245545;23;20039;-83
2022/10/05 05:34:48;;;;;;;19.05;10.30;;;13.50;99.90;;;;;;6217476;23;20026;-83
2022/10/05 05:37:13;;;;;;;17.88;9.85;;;13.50;99.90;;;;;;6217940;23;20099;-83
2022/10/05 05:40:08;;;;;;;20.58;10.90;;;13.50;99.90;;;;;;6217505;23;20040;-83
2022/10/05 05:42:40;;;;;;;19.10;9.98;;;13.50;99.90;;;;;;6163227;23;20101;-83
2022/10/05 05:45:16;;;;;;;17.90;9.57;;;13.50;99.90;;;;;;6217741;23;20024;-84
2022/10/05 05:47:50;;;;;;;18.33;9.82;;;13.60;99.90;;;;;;6244449;23;20066;-83
2022/10/05 05:50:48;;;;;;;18.50;10.05;;;13.60;99.90;;;;;;6217752;23;20020;-83
2022/10/05 05:53:23;;;;;;;18.75;10.20;;;13.60;99.90;;;;;;6218038;23;20052;-83
2022/10/05 05:55:54;;;;;;;17.83;9.85;;;14.20;99.90;;;;;;6245194;23;20012;-83
2022/10/05 05:58:32;;;;;;;17.88;9.70;;;13.70;99.90;;;;;;6217904;23;20062;-83
2022/10/05 06:01:11;;;;;;;18.77;9.82;;;13.90;99.90;;;;;;6244138;23;20452;-84
2022/10/05 06:03:49;;;;;;;17.50;10.23;;;13.70;99.90;;;;;;6244811;23;20094;-83
2022/10/05 06:06:16;;;;;;;18.20;9.75;;;14.10;99.90;;;;;;6244856;23;20017;-84
2022/10/05 06:08:47;;;;;;;17.33;10.35;;;13.70;99.90;;;;;;6244300;23;20024;-84
2022/10/05 06:11:21;;;;;;;17.13;9.82;;;13.80;99.90;;;;;;6217635;23;20017;-83
2022/10/05 06:13:48;;;;;;;20.92;10.32;;;13.80;99.90;;;;;;6218460;23;20020;-83
2022/10/05 06:16:44;;;;;;;23.00;10.38;;;14.90;99.90;;;;;;6242731;23;20425;-83
2022/10/05 06:19:18;;;;;;;19.67;9.55;;;13.80;99.90;;;;;;6217844;23;20020;-83
2022/10/05 06:21:59;;;;;;;19.73;10.27;;;13.90;99.90;;;;;;6217277;23;20028;-83
2022/10/05 06:24:39;;;;;;;19.02;10.23;;;13.90;99.90;;;;;;6218333;23;20048;-83
2022/10/05 06:27:35;;;;;;;18.15;9.98;;;13.90;99.90;;;;;;6219810;23;20051;-83
2022/10/05 06:30:15;;;;;;;18.05;10.20;;;13.90;99.90;;;;;;6246247;23;20016;-83
2022/10/05 06:33:11;;;;;;;17.15;9.93;;;13.90;99.90;;;;;;6220086;23;20082;-83
2022/10/05 06:36:10;;;;;;;19.35;10.80;;;14.00;99.90;;;;;;6246164;23;20012;-83
2022/10/05 06:39:07;;;;;;;19.70;10.82;;;14.00;99.90;;;;;;6248455;23;20094;-82
2022/10/05 06:42:04;;;;;;;18.20;10.00;;;14.00;99.90;;;;;;6222437;23;20102;-82
2022/10/05 06:44:44;;;;;;;17.90;10.23;;;14.00;99.90;;;;;;6244827;23;20020;-83
2022/10/05 06:47:22;;;;;;;18.40;10.07;;;14.00;99.90;;;;;;6219307;23;20095;-82
2022/10/05 06:57:50;;;;;;;16.80;9.10;;;14.20;99.90;;;;;;6246523;22;20023;-81
2022/10/05 07:00:21;;;;;;;15.13;8.68;;;14.20;99.90;;;;;;6276608;22;20456;-82
2022/10/05 07:03:20;;;;;;;15.48;8.38;;;14.60;99.90;;;;;;6277639;22;20016;-80
2022/10/05 07:06:09;;;;;;;21.55;8.90;;;14.30;99.90;;;;;;6275971;22;20340;-82
2022/10/05 07:08:56;;;;;;;16.98;8.55;;;14.40;99.90;;;;;;6276974;22;20065;-82
2022/10/05 07:11:39;;;;;;;14.52;8.48;;;14.30;99.90;;;;;;6275750;22;20012;-82
2022/10/05 07:14:38;;;;;;;15.63;8.98;;;14.30;99.90;;;;;;6249461;22;20023;-82
2022/10/05 07:17:22;;;;;;;14.95;9.13;;;14.30;99.90;;;;;;6250079;22;20019;-82
2022/10/05 07:20:14;;;;;;;15.65;9.05;;;14.30;99.90;;;;;;6248996;22;20020;-82
2022/10/05 07:22:40;;;;;;;16.02;8.25;;;14.30;99.90;;;;;;6276959;22;20459;-82
2022/10/05 07:25:14;;;;;;;14.95;9.15;;;14.30;99.90;;;;;;6275832;22;20026;-82
2022/10/05 07:27:55;;;;;;;13.40;7.90;;;14.40;99.90;;;;;;6249839;22;20015;-81
2022/10/05 07:30:21;;;;;;;16.40;8.27;;;14.40;99.90;;;;;;6249359;22;20015;-82
2022/10/05 07:33:08;;;;;;;14.30;7.78;;;15.30;99.90;;;;;;6246853;22;20045;-83
2022/10/05 07:38:57;;;;;;;17.05;8.55;;;14.40;99.90;;;;;;6249650;22;20106;-83
2022/10/05 07:41:37;;;;;;;15.63;8.52;;;15.70;99.90;;;;;;6276506;22;20044;-82
2022/10/05 07:44:17;;;;;;;15.48;8.18;;;14.40;99.90;;;;;;6277218;22;20016;-81
2022/10/05 07:47:03;;;;;;;16.77;8.75;;;14.50;99.90;;;;;;6248924;22;20011;-82
2022/10/05 07:50:03;;;;;;;17.23;9.27;;;14.40;99.90;;;;;;6248719;22;20008;-83
2022/10/05 07:52:42;;;;;;;14.15;8.45;;;14.50;99.90;;;;;;6276799;22;20083;-83
2022/10/05 07:55:37;;;;;;;15.02;8.25;;;14.60;99.90;;;;;;6247973;22;20375;-83
2022/10/05 07:58:26;;;;;;;15.65;8.52;;;14.60;99.90;;;;;;6249383;22;20077;-83
2022/10/05 08:01:00;;;;;;;15.60;8.82;;;14.60;99.90;;;;;;6275952;22;20024;-83
2022/10/05 08:03:48;;;;;;;16.33;8.70;;;14.70;99.90;;;;;;6249261;22;20024;-83
2022/10/05 08:06:34;;;;;;;16.23;8.35;;;14.80;99.90;;;;;;6248869;22;20015;-83
2022/10/05 08:09:18;;;;;;;15.98;8.50;;;14.80;99.90;;;;;;6276050;22;20081;-83
2022/10/05 08:12:11;;;;;;;14.18;8.43;;;14.80;99.90;;;;;;6249250;22;20039;-83
2022/10/05 08:14:50;;;;;;;17.77;8.10;;;14.80;99.90;;;;;;6248095;22;20008;-83
2022/10/05 08:17:24;;;;;;;16.42;7.88;;;15.40;99.90;;;;;;6276020;22;20020;-83
2022/10/05 08:20:02;;;;;;;14.00;8.15;;;15.00;99.90;;;;;;6249197;22;20035;-83
2022/10/05 08:22:42;;;;;;;13.70;8.02;;;15.00;99.90;;;;;;6248015;22;20016;-83
2022/10/05 08:25:18;;;;;;;14.15;7.28;;;15.00;99.90;;;;;;6248663;22;20348;-83
2022/10/05 08:27:56;;;;;;;14.65;7.85;;;15.70;99.90;;;;;;6276817;22;20019;-83
2022/10/05 08:30:22;;;;;;;13.60;7.95;;;15.80;99.90;;;;;;6248079;22;20095;-83
2022/10/05 08:33:08;;;;;;;14.13;7.70;;;15.10;99.90;;;;;;6276466;22;20072;-82
2022/10/05 08:35:42;;;;;;;12.07;6.85;;;15.10;99.90;;;;;;6248370;22;20531;-82
2022/10/05 08:38:17;;;;;;;17.52;8.05;;;15.20;99.90;;;;;;6276321;22;20095;-83
2022/10/05 08:40:55;;;;;;;12.98;7.30;;;15.20;99.90;;;;;;6276443;22;20024;-83
2022/10/05 08:44:06;;;;;;;14.45;7.63;;;15.20;99.90;;;;;;6247991;22;20008;-83
2022/10/05 08:46:44;;;;;;;14.52;7.57;;;15.20;99.90;;;;;;6249063;22;20061;-83
2022/10/05 08:49:31;;;;;;;12.40;6.85;;;15.30;99.90;;;;;;6276412;22;20020;-83
2022/10/05 08:52:35;;;;;;;13.73;6.93;;;15.40;99.90;;;;;;6276174;22;20026;-83
2022/10/05 08:55:10;;;;;;;12.32;7.15;;;15.50;99.90;;;;;;6167365;22;20024;-83
2022/10/05 08:58:21;;;;;;;13.77;7.00;;;15.60;99.90;;;;;;6247624;22;20075;-83
2022/10/05 09:01:35;;;;;;;12.73;6.40;;;15.60;99.90;;;;;;6185257;22;20024;-84
2022/10/05 09:04:37;;;;;;;12.02;6.20;;;15.70;99.90;;;;;;6247768;22;20041;-83
2022/10/05 09:07:27;;;;;;;11.48;6.40;;;15.90;99.90;;;;;;6248973;22;20020;-84
2022/10/05 09:10:11;;;;;;;12.60;6.03;;;15.90;99.90;;;;;;6276188;22;20083;-83
2022/10/05 09:13:41;;;;;;;13.20;5.95;;;15.90;99.90;;;;;;6247559;22;20043;-83
2022/10/05 09:16:28;;;;;;;11.30;5.38;;;15.90;99.90;;;;;;6098160;23;20018;-84
2022/10/05 09:19:22;;;;;;;10.13;5.05;;;16.00;99.90;;;;;;6265026;22;20011;-84
2022/10/05 09:21:47;;;;;;;;;;;16.00;99.90;;;;;;6195503;22;20035;-83
2022/10/05 09:24:13;;;;;;;12.15;4.97;;;16.70;99.90;;;;;;6248251;22;20374;-84
2022/10/05 09:27:00;;;;;;;9.88;4.95;;;16.20;99.90;;;;;;6247673;22;20016;-83
2022/10/05 09:29:45;;;;;;;11.27;5.13;;;16.10;99.90;;;;;;6275205;22;20340;-84
2022/10/05 09:32:19;;;;;;;11.70;4.95;;;16.20;99.90;;;;;;6246601;22;20026;-84
2022/10/05 09:35:20;;;;;;;12.77;5.05;;;16.20;99.90;;;;;;6276416;22;20047;-84
2022/10/05 09:37:48;;;;;;;13.18;4.82;;;16.30;99.90;;;;;;6275854;22;20012;-84
2022/10/05 09:40:26;;;;;;;10.63;4.93;;;16.40;99.90;;;;;;6247455;22;20024;-84
2022/10/05 09:43:25;;;;;;;10.57;5.20;;;16.30;99.90;;;;;;6275876;22;20026;-85
2022/10/05 09:46:30;;;;;;;11.27;5.00;;;16.20;99.90;;;;;;6247766;22;20383;-86
2022/10/05 09:49:44;;;;;;;11.05;5.38;;;16.20;99.90;;;;;;6248535;22;20015;-86
2022/10/05 09:52:20;;;;;;;10.15;5.32;;;16.10;99.90;;;;;;6275224;22;20016;-85
2022/10/05 09:55:01;;;;;;;11.18;5.10;;;16.20;99.90;;;;;;6247382;22;20047;-85
2022/10/05 09:57:56;;;;;;;11.13;5.03;;;16.20;99.90;;;;;;6247246;22;20096;-85
2022/10/05 10:00:36;;;;;;;;;;;16.20;99.90;;;;;;6277284;22;20107;-85
2022/10/05 10:03:24;;;;;;;13.30;5.47;;;16.20;99.90;;;;;;6250417;22;19911;-83
2022/10/05 10:06:09;;;;;;;11.57;5.53;;;16.30;99.90;;;;;;6250443;22;20155;-83
2022/10/05 10:09:00;;;;;;;10.52;5.30;;;16.30;99.90;;;;;;6249776;22;20027;-84
2022/10/05 10:12:01;;;;;;;10.77;5.30;;;16.30;99.90;;;;;;6277114;22;20095;-86
2022/10/05 10:14:48;;;;;;;10.50;5.45;;;16.20;99.90;;;;;;6249231;22;20460;-85
2022/10/05 10:17:43;;;;;;;10.23;5.35;;;16.30;99.90;;;;;;6277773;22;20011;-86
2022/10/05 10:20:29;;;;;;;10.48;5.40;;;16.30;99.90;;;;;;6277531;22;20304;-85
2022/10/05 10:23:01;;;;;;;9.85;5.32;;;16.30;99.90;;;;;;6249636;22;20069;-85
2022/10/05 10:25:57;;;;;;;11.25;5.68;;;16.30;99.90;;;;;;6249519;22;20019;-85
2022/10/05 10:28:32;;;;;;;10.60;5.43;;;16.30;99.90;;;;;;6276259;22;20065;-84
2022/10/05 10:31:22;;;;;;;10.77;5.55;;;16.30;99.90;;;;;;6278066;22;20070;-83
2022/10/05 10:34:40;;;;;;;10.85;5.85;;;16.30;99.90;;;;;;6276912;22;20015;-84
2022/10/05 10:37:27;;;;;;;10.85;5.60;;;16.40;99.90;;;;;;6248925;22;20456;-86
2022/10/05 10:40:07;;;;;;;9.77;5.45;;;16.50;99.90;;;;;;6274385;22;20021;-87
2022/10/05 10:43:21;;;;;;;10.60;5.80;;;16.60;99.90;;;;;;6275773;22;20336;-86
2022/10/05 10:46:34;;;;;;;11.32;5.00;;;16.50;99.90;;;;;;6249150;22;20020;-86
2022/10/05 10:53:54;;;;;;;9.30;4.50;;;16.50;99.90;;;;;;6249502;22;20031;-86
2022/10/05 10:57:01;;;;;;;9.70;4.18;;;16.60;99.90;;;;;;6098021;23;20017;-86
2022/10/05 11:00:08;;;;;;;9.25;4.10;;;16.60;99.90;;;;;;6248400;22;20348;-85
2022/10/05 11:03:18;;;;;;;9.30;4.10;;;16.60;99.90;;;;;;6275494;22;20454;-85
2022/10/05 11:05:59;;;;;;;9.05;4.10;;;16.60;99.90;;;;;;6241084;22;20020;-86
2022/10/05 11:08:36;;;;;;;10.45;4.40;;;16.70;99.90;;;;;;6276611;22;20020;-86
2022/10/05 11:11:35;;;;;;;9.10;4.30;;;16.70;99.90;;;;;;6248108;22;20352;-87
2022/10/05 11:14:45;;;;;;;9.98;4.63;;;16.90;99.90;;;;;;6249881;22;20020;-87
2022/10/05 11:17:44;;;;;;;10.88;5.10;;;16.90;99.90;;;;;;6249080;22;20020;-86
2022/10/05 11:20:22;;;;;;;10.13;4.70;;;16.30;99.90;;;;;;6276961;22;20020;-86
2022/10/05 11:23:19;;;;;;;10.10;5.10;;;17.00;99.90;;;;;;6277048;22;20463;-86
2022/10/05 11:26:08;;;;;;;11.02;5.13;;;16.90;99.90;;;;;;6248881;22;20333;-86
2022/10/05 11:29:06;;;;;;;12.20;5.00;;;17.00;99.90;;;;;;6250617;22;20015;-86
2022/10/05 11:35:33;;;;;;;10.30;4.93;;;17.00;99.90;;;;;;6276555;22;20031;-85
2022/10/05 11:38:39;;;;;;;10.43;5.50;;;17.10;99.90;;;;;;6277229;22;20019;-86
2022/10/05 11:41:49;;;;;;;9.63;4.50;;;17.30;99.90;;;;;;6249879;22;20022;-86
2022/10/05 11:45:09;;;;;;;10.40;4.85;;;17.30;99.90;;;;;;6249702;22;20042;-85
2022/10/05 11:48:16;;;;;;;10.63;4.90;;;17.40;99.90;;;;;;6277277;22;20098;-85
2022/10/05 11:51:03;;;;;;;10.25;4.90;;;17.40;99.90;;;;;;6124164;23;20026;-85
2022/10/05 11:53:59;;;;;;;9.80;4.43;;;17.50;99.90;;;;;;6197249;23;20099;-85
2022/10/05 11:56:40;;;;;;;10.65;4.78;;;17.50;99.90;;;;;;6218779;23;20020;-85
2022/10/05 11:59:33;;;;;;;10.23;4.50;;;17.40;99.90;;;;;;6218282;23;20405;-85
2022/10/05 12:02:40;;;;;;;9.73;4.80;;;17.40;99.90;;;;;;6246440;23;20087;-85
2022/10/05 12:05:34;;;;;;;11.32;4.70;;;17.40;99.90;;;;;;6219115;23;20086;-85
2022/10/05 12:08:22;;;;;;;10.48;4.20;;;17.50;99.90;;;;;;6218679;23;20020;-85
2022/10/05 12:14:51;;;;;;;10.15;4.35;;;17.50;99.90;;;;;;6275333;22;20018;-85
2022/10/05 12:17:42;;;;;;;9.55;4.35;;;17.40;99.90;;;;;;6249145;22;20030;-85
2022/10/05 12:20:17;;;;;;;9.93;4.45;;;17.40;99.90;;;;;;6248567;22;20452;-85
2022/10/05 12:22:53;;;;;;;10.68;4.25;;;17.60;99.90;;;;;;6249538;22;20145;-85
2022/10/05 12:25:38;;;;;;;9.15;4.47;;;18.30;99.90;;;;;;6248822;22;20035;-85
2022/10/05 12:28:14;;;;;;;10.40;4.32;;;17.40;99.90;;;;;;6248334;22;20020;-85
2022/10/05 12:31:20;;;;;;;10.25;4.60;;;17.30;99.90;;;;;;6249287;22;20024;-85
2022/10/05 12:34:30;;;;;;;10.13;4.30;;;17.30;99.90;;;;;;6249203;22;20022;-86
2022/10/05 12:40:46;;;;;;;9.73;3.90;;;17.10;99.90;;;;;;6274271;22;20028;-85
2022/10/05 12:43:49;;;;;;;11.90;5.40;;;17.20;99.90;;;;;;6247466;22;20090;-84
2022/10/05 12:46:36;;;;;;;11.07;4.70;;;18.00;99.90;;;;;;6248852;22;20400;-84
2022/10/05 12:52:43;;;;;;;10.38;4.25;;;17.20;99.90;;;;;;6244100;22;20388;-84
2022/10/05 12:55:46;;;;;;;10.85;4.80;;;17.30;99.90;;;;;;6218401;23;20024;-84
2022/10/05 12:58:46;;;;;;;10.77;4.93;;;17.40;99.90;;;;;;6243597;23;20475;-85
2022/10/05 13:01:51;;;;;;;10.68;4.32;;;17.40;99.90;;;;;;6226644;22;20012;-85
2022/10/05 13:04:17;;;;;;;12.40;4.40;;;17.50;99.90;;;;;;6244326;23;20103;-86
2022/10/05 13:10:28;;;;;;;9.55;4.40;;;17.50;99.90;;;;;;6244498;23;20058;-86
2022/10/05 13:13:19;;;;;;;11.15;4.70;;;17.50;99.90;;;;;;6218399;23;20043;-86
2022/10/05 13:16:13;;;;;;;9.52;4.00;;;17.60;99.90;;;;;;6245322;23;20388;-85
2022/10/05 13:23:10;;;;;;;10.20;4.30;;;17.70;99.90;;;;;;6248493;22;19921;-85
2022/10/05 13:32:33;;;;;;;9.15;4.05;;;17.90;99.90;;;;;;6259033;22;20028;-86
2022/10/05 13:35:22;;;;;;;9.35;3.65;;;17.90;99.90;;;;;;6275863;22;20019;-85
2022/10/05 13:38:17;;;;;;;9.45;3.92;;;17.90;99.90;;;;;;6247859;22;20444;-86
2022/10/05 13:41:10;;;;;;;10.02;4.13;;;17.90;99.90;;;;;;6248639;22;20367;-86
2022/10/05 13:43:38;;;;;;;12.80;3.78;;;18.00;99.90;;;;;;6248745;22;20353;-85
2022/10/05 13:46:13;;;;;;;9.27;3.55;;;18.20;99.90;;;;;;6247617;22;20047;-86
2022/10/05 13:49:15;;;;;;;9.10;3.50;;;18.00;99.90;;;;;;6249326;22;20061;-86
2022/10/05 13:52:16;;;;;;;10.70;3.33;;;18.10;99.90;;;;;;6275358;22;20023;-85
2022/10/05 13:54:54;;;;;;;8.40;3.30;;;18.10;99.90;;;;;;6248835;22;20399;-86
2022/10/05 13:57:51;;;;;;;9.45;3.78;;;18.20;99.90;;;;;;6274688;22;20103;-86
2022/10/05 14:00:22;;;;;;;8.32;3.55;;;18.30;99.90;;;;;;6247352;22;20016;-86
2022/10/05 14:02:53;;;;;;;10.82;3.42;;;18.40;99.90;;;;;;6248654;22;20424;-86
2022/10/05 14:05:27;;;;;;;8.15;3.17;;;18.70;99.90;;;;;;6248512;22;20019;-85
2022/10/05 14:08:05;;;;;;;9.05;3.63;;;18.30;99.90;;;;;;6246998;22;20023;-86
2022/10/05 14:10:46;;;;;;;9.90;3.42;;;18.40;99.90;;;;;;6275960;22;20055;-86
2022/10/05 14:13:33;;;;;;;8.27;3.40;;;18.40;99.90;;;;;;6274528;22;20089;-85
2022/10/05 14:16:32;;;;;;;8.00;3.30;;;18.50;99.90;;;;;;6248301;22;20023;-86
2022/10/05 14:19:03;;;;;;;9.93;3.35;;;18.50;99.90;;;;;;6275906;22;20008;-86
2022/10/05 14:21:46;;;;;;;9.25;3.47;;;19.30;99.90;;;;;;6247349;22;20031;-85
2022/10/05 14:24:30;;;;;;;8.80;3.17;;;18.70;99.90;;;;;;6276037;22;20008;-86
2022/10/05 14:27:00;;;;;;;9.48;3.55;;;18.80;99.90;;;;;;6248003;22;20015;-85
2022/10/05 14:29:37;;;;;;;10.50;3.38;;;19.10;99.90;;;;;;6273585;22;20011;-85
2022/10/05 14:32:51;;;;;;;8.48;3.30;;;19.90;99.90;;;;;;6248479;22;20016;-86
2022/10/05 14:36:03;;;;;;;8.65;3.22;;;18.30;99.90;;;;;;6246178;22;20313;-86
2022/10/05 14:38:56;;;;;;;7.78;3.30;;;18.60;99.90;;;;;;6248183;22;20019;-86
2022/10/05 14:41:32;;;;;;;10.47;3.30;;;18.60;99.90;;;;;;6246934;22;20012;-87
2022/10/05 14:44:00;;;;;;;11.18;3.67;;;18.50;99.90;;;;;;6248916;22;20254;-84
2022/10/05 14:46:32;;;;;;;10.63;3.33;;;18.40;99.90;;;;;;6276478;22;20270;-85
2022/10/05 14:49:20;;;;;;;9.10;3.35;;;19.60;99.90;;;;;;6276654;22;20071;-82
2022/10/05 14:56:02;;;;;;;8.52;3.15;;;18.60;99.90;;;;;;6176772;22;20462;-82
2022/10/05 14:58:47;;;;;;;9.52;3.30;;;18.50;99.90;;;;;;6195549;22;20053;-84
2022/10/05 15:01:30;;;;;;;7.78;3.03;;;19.70;99.90;;;;;;6245313;22;20019;-83